sensor_id;sensor_type;location;lat;lon;timestamp;P1;durP1;ratioP1;P2;durP2;ratioP2
12852;SDS011;6495;51.808;7.478;2022-10-16T00:01:25;3.78;;;2.03;;
12852;SDS011;6495;51.808;7.478;2022-10-16T00:03:57;4.30;;;2.42;;
12852;SDS011;6495;51.808;7.478;2022-10-16T00:06:28;5.57;;;2.80;;
12852;SDS011;6495;51.808;7.478;2022-10-16T00:08:57;5.88;;;2.55;;
12852;SDS011;6495;51.808;7.478;2022-10-16T00:11:26;5.85;;;2.80;;
12852;SDS011;6495;51.808;7.478;2022-10-16T00:13:59;4.50;;;2.45;;
12852;SDS011;6495;51.808;7.478;2022-10-16T00:16:30;3.63;;;2.70;;
12852;SDS011;6495;51.808;7.478;2022-10-16T00:18:58;3.95;;;2.58;;
12852;SDS011;6495;51.808;7.478;2022-10-16T00:21:27;4.50;;;2.60;;
12852;SDS011;6495;51.808;7.478;2022-10-16T00:23:59;2.70;;;2.45;;
12852;SDS011;6495;51.808;7.478;2022-10-16T00:26:31;4.97;;;2.85;;
12852;SDS011;6495;51.808;7.478;2022-10-16T00:29:02;3.65;;;2.55;;
12852;SDS011;6495;51.808;7.478;2022-10-16T00:31:31;3.75;;;2.67;;
12852;SDS011;6495;51.808;7.478;2022-10-16T00:33:59;4.68;;;2.55;;
12852;SDS011;6495;51.808;7.478;2022-10-16T00:36:29;5.20;;;2.28;;
12852;SDS011;6495;51.808;7.478;2022-10-16T00:38:58;4.53;;;2.40;;
12852;SDS011;6495;51.808;7.478;2022-10-16T00:41:27;3.80;;;2.75;;
12852;SDS011;6495;51.808;7.478;2022-10-16T00:43:56;5.25;;;3.15;;
12852;SDS011;6495;51.808;7.478;2022-10-16T00:46:27;6.22;;;3.08;;
12852;SDS011;6495;51.808;7.478;2022-10-16T00:49:03;3.17;;;2.72;;
12852;SDS011;6495;51.808;7.478;2022-10-16T00:51:37;4.15;;;2.60;;
12852;SDS011;6495;51.808;7.478;2022-10-16T00:54:09;2.78;;;2.13;;
12852;SDS011;6495;51.808;7.478;2022-10-16T00:56:41;5.93;;;2.60;;
12852;SDS011;6495;51.808;7.478;2022-10-16T00:59:13;2.92;;;2.63;;
12852;SDS011;6495;51.808;7.478;2022-10-16T01:01:46;3.92;;;2.55;;
12852;SDS011;6495;51.808;7.478;2022-10-16T01:04:14;5.25;;;2.40;;
12852;SDS011;6495;51.808;7.478;2022-10-16T01:06:46;3.88;;;2.55;;
12852;SDS011;6495;51.808;7.478;2022-10-16T01:09:27;3.05;;;2.58;;
12852;SDS011;6495;51.808;7.478;2022-10-16T01:12:05;4.75;;;2.85;;
12852;SDS011;6495;51.808;7.478;2022-10-16T01:14:42;4.30;;;3.10;;
12852;SDS011;6495;51.808;7.478;2022-10-16T01:17:18;3.22;;;2.20;;
12852;SDS011;6495;51.808;7.478;2022-10-16T01:20:01;3.33;;;2.35;;
12852;SDS011;6495;51.808;7.478;2022-10-16T01:22:48;3.72;;;2.17;;
12852;SDS011;6495;51.808;7.478;2022-10-16T01:28:57;7.10;;;2.65;;
12852;SDS011;6495;51.808;7.478;2022-10-16T01:31:32;4.68;;;2.50;;
12852;SDS011;6495;51.808;7.478;2022-10-16T01:34:06;4.05;;;2.70;;
12852;SDS011;6495;51.808;7.478;2022-10-16T01:36:42;8.82;;;2.63;;
12852;SDS011;6495;51.808;7.478;2022-10-16T01:39:17;3.40;;;2.30;;
12852;SDS011;6495;51.808;7.478;2022-10-16T01:41:52;7.13;;;2.70;;
12852;SDS011;6495;51.808;7.478;2022-10-16T01:44:29;2.80;;;2.35;;
12852;SDS011;6495;51.808;7.478;2022-10-16T01:47:02;3.95;;;2.40;;
12852;SDS011;6495;51.808;7.478;2022-10-16T01:49:33;5.43;;;2.40;;
12852;SDS011;6495;51.808;7.478;2022-10-16T01:52:05;4.65;;;2.28;;
12852;SDS011;6495;51.808;7.478;2022-10-16T01:54:39;3.42;;;2.40;;
12852;SDS011;6495;51.808;7.478;2022-10-16T01:57:12;5.00;;;2.35;;
12852;SDS011;6495;51.808;7.478;2022-10-16T01:59:45;4.93;;;2.15;;
12852;SDS011;6495;51.808;7.478;2022-10-16T02:02:18;4.85;;;2.50;;
12852;SDS011;6495;51.808;7.478;2022-10-16T02:04:58;6.55;;;2.45;;
12852;SDS011;6495;51.808;7.478;2022-10-16T02:07:31;4.43;;;2.20;;
12852;SDS011;6495;51.808;7.478;2022-10-16T02:09:59;2.47;;;1.98;;
12852;SDS011;6495;51.808;7.478;2022-10-16T02:12:29;4.88;;;2.25;;
12852;SDS011;6495;51.808;7.478;2022-10-16T02:15:02;2.55;;;2.00;;
12852;SDS011;6495;51.808;7.478;2022-10-16T02:17:31;4.03;;;2.10;;
12852;SDS011;6495;51.808;7.478;2022-10-16T02:19:59;4.72;;;2.00;;
12852;SDS011;6495;51.808;7.478;2022-10-16T02:22:30;4.82;;;2.20;;
12852;SDS011;6495;51.808;7.478;2022-10-16T02:25:02;2.50;;;1.88;;
12852;SDS011;6495;51.808;7.478;2022-10-16T02:27:38;3.78;;;2.20;;
12852;SDS011;6495;51.808;7.478;2022-10-16T02:30:16;5.45;;;2.13;;
12852;SDS011;6495;51.808;7.478;2022-10-16T02:32:49;2.70;;;1.90;;
12852;SDS011;6495;51.808;7.478;2022-10-16T02:35:20;3.10;;;1.90;;
12852;SDS011;6495;51.808;7.478;2022-10-16T02:37:50;3.42;;;2.10;;
12852;SDS011;6495;51.808;7.478;2022-10-16T02:40:20;3.17;;;2.05;;
12852;SDS011;6495;51.808;7.478;2022-10-16T02:42:51;2.47;;;1.83;;
12852;SDS011;6495;51.808;7.478;2022-10-16T02:45:22;3.67;;;2.20;;
12852;SDS011;6495;51.808;7.478;2022-10-16T02:47:52;2.20;;;1.90;;
12852;SDS011;6495;51.808;7.478;2022-10-16T02:50:20;3.15;;;1.80;;
12852;SDS011;6495;51.808;7.478;2022-10-16T02:52:48;2.63;;;2.15;;
12852;SDS011;6495;51.808;7.478;2022-10-16T02:55:16;4.60;;;1.95;;
12852;SDS011;6495;51.808;7.478;2022-10-16T02:57:44;2.38;;;1.83;;
12852;SDS011;6495;51.808;7.478;2022-10-16T03:00:13;4.60;;;1.80;;
12852;SDS011;6495;51.808;7.478;2022-10-16T03:02:44;1.85;;;1.40;;
12852;SDS011;6495;51.808;7.478;2022-10-16T03:05:13;3.50;;;1.77;;
12852;SDS011;6495;51.808;7.478;2022-10-16T03:07:41;2.40;;;1.80;;
12852;SDS011;6495;51.808;7.478;2022-10-16T03:10:09;1.83;;;1.73;;
12852;SDS011;6495;51.808;7.478;2022-10-16T03:12:37;1.50;;;1.40;;
12852;SDS011;6495;51.808;7.478;2022-10-16T03:15:06;3.63;;;1.88;;
12852;SDS011;6495;51.808;7.478;2022-10-16T03:17:35;2.45;;;1.50;;
12852;SDS011;6495;51.808;7.478;2022-10-16T03:20:05;2.42;;;2.10;;
12852;SDS011;6495;51.808;7.478;2022-10-16T03:22:34;1.92;;;1.52;;
12852;SDS011;6495;51.808;7.478;2022-10-16T03:25:02;2.22;;;1.70;;
12852;SDS011;6495;51.808;7.478;2022-10-16T03:27:31;1.73;;;1.35;;
12852;SDS011;6495;51.808;7.478;2022-10-16T03:29:59;2.22;;;1.58;;
12852;SDS011;6495;51.808;7.478;2022-10-16T03:32:27;2.03;;;1.60;;
12852;SDS011;6495;51.808;7.478;2022-10-16T03:34:55;2.05;;;1.60;;
12852;SDS011;6495;51.808;7.478;2022-10-16T03:37:24;1.65;;;1.55;;
12852;SDS011;6495;51.808;7.478;2022-10-16T03:39:53;3.40;;;1.90;;
12852;SDS011;6495;51.808;7.478;2022-10-16T03:42:21;3.83;;;1.75;;
12852;SDS011;6495;51.808;7.478;2022-10-16T03:44:50;2.50;;;1.77;;
12852;SDS011;6495;51.808;7.478;2022-10-16T03:47:18;4.97;;;1.65;;
12852;SDS011;6495;51.808;7.478;2022-10-16T03:49:47;1.48;;;1.38;;
12852;SDS011;6495;51.808;7.478;2022-10-16T03:52:16;1.50;;;1.35;;
12852;SDS011;6495;51.808;7.478;2022-10-16T03:54:50;1.50;;;1.40;;
12852;SDS011;6495;51.808;7.478;2022-10-16T03:57:18;2.13;;;1.50;;
12852;SDS011;6495;51.808;7.478;2022-10-16T03:59:47;1.42;;;1.30;;
12852;SDS011;6495;51.808;7.478;2022-10-16T04:02:15;4.38;;;1.52;;
12852;SDS011;6495;51.808;7.478;2022-10-16T04:04:43;2.70;;;1.77;;
12852;SDS011;6495;51.808;7.478;2022-10-16T04:07:11;2.15;;;1.50;;
12852;SDS011;6495;51.808;7.478;2022-10-16T04:09:38;3.40;;;1.33;;
12852;SDS011;6495;51.808;7.478;2022-10-16T04:12:08;1.63;;;1.23;;
12852;SDS011;6495;51.808;7.478;2022-10-16T04:14:36;1.40;;;1.30;;
12852;SDS011;6495;51.808;7.478;2022-10-16T04:17:04;2.30;;;1.60;;
12852;SDS011;6495;51.808;7.478;2022-10-16T04:19:32;1.60;;;1.50;;
12852;SDS011;6495;51.808;7.478;2022-10-16T04:21:59;1.90;;;1.35;;
12852;SDS011;6495;51.808;7.478;2022-10-16T04:24:27;2.83;;;1.42;;
12852;SDS011;6495;51.808;7.478;2022-10-16T04:26:55;1.92;;;1.33;;
12852;SDS011;6495;51.808;7.478;2022-10-16T04:29:25;1.75;;;1.50;;
12852;SDS011;6495;51.808;7.478;2022-10-16T04:31:53;1.60;;;1.50;;
12852;SDS011;6495;51.808;7.478;2022-10-16T04:34:21;1.70;;;1.60;;
12852;SDS011;6495;51.808;7.478;2022-10-16T04:36:49;1.60;;;1.50;;
12852;SDS011;6495;51.808;7.478;2022-10-16T04:39:17;1.60;;;1.38;;
12852;SDS011;6495;51.808;7.478;2022-10-16T04:41:45;3.58;;;1.60;;
12852;SDS011;6495;51.808;7.478;2022-10-16T04:44:13;1.65;;;1.23;;
12852;SDS011;6495;51.808;7.478;2022-10-16T04:46:42;1.42;;;1.23;;
12852;SDS011;6495;51.808;7.478;2022-10-16T04:49:10;1.80;;;1.33;;
12852;SDS011;6495;51.808;7.478;2022-10-16T04:51:38;3.72;;;1.50;;
12852;SDS011;6495;51.808;7.478;2022-10-16T04:54:06;2.78;;;1.70;;
12852;SDS011;6495;51.808;7.478;2022-10-16T04:56:35;2.30;;;1.52;;
12852;SDS011;6495;51.808;7.478;2022-10-16T04:59:09;1.73;;;1.30;;
12852;SDS011;6495;51.808;7.478;2022-10-16T05:01:37;1.50;;;1.40;;
12852;SDS011;6495;51.808;7.478;2022-10-16T05:04:06;4.13;;;1.30;;
12852;SDS011;6495;51.808;7.478;2022-10-16T05:06:34;2.63;;;1.52;;
12852;SDS011;6495;51.808;7.478;2022-10-16T05:09:04;1.50;;;1.40;;
12852;SDS011;6495;51.808;7.478;2022-10-16T05:11:32;3.03;;;1.50;;
12852;SDS011;6495;51.808;7.478;2022-10-16T05:14:01;1.30;;;1.20;;
12852;SDS011;6495;51.808;7.478;2022-10-16T05:16:29;3.05;;;1.73;;
12852;SDS011;6495;51.808;7.478;2022-10-16T05:18:57;1.25;;;1.15;;
12852;SDS011;6495;51.808;7.478;2022-10-16T05:21:47;3.83;;;1.50;;
12852;SDS011;6495;51.808;7.478;2022-10-16T05:24:15;1.48;;;1.38;;
12852;SDS011;6495;51.808;7.478;2022-10-16T05:26:43;1.98;;;1.25;;
12852;SDS011;6495;51.808;7.478;2022-10-16T05:29:11;2.13;;;1.40;;
12852;SDS011;6495;51.808;7.478;2022-10-16T05:31:39;1.50;;;1.35;;
12852;SDS011;6495;51.808;7.478;2022-10-16T05:34:07;2.55;;;1.50;;
12852;SDS011;6495;51.808;7.478;2022-10-16T05:36:35;1.45;;;1.27;;
12852;SDS011;6495;51.808;7.478;2022-10-16T05:39:04;2.53;;;1.20;;
12852;SDS011;6495;51.808;7.478;2022-10-16T05:41:32;1.48;;;1.38;;
12852;SDS011;6495;51.808;7.478;2022-10-16T05:44:00;1.95;;;1.45;;
12852;SDS011;6495;51.808;7.478;2022-10-16T05:46:32;2.15;;;1.50;;
12852;SDS011;6495;51.808;7.478;2022-10-16T05:49:00;2.78;;;1.35;;
12852;SDS011;6495;51.808;7.478;2022-10-16T05:51:28;1.23;;;1.13;;
12852;SDS011;6495;51.808;7.478;2022-10-16T05:53:56;3.35;;;1.50;;
12852;SDS011;6495;51.808;7.478;2022-10-16T05:56:26;1.60;;;1.50;;
12852;SDS011;6495;51.808;7.478;2022-10-16T05:58:54;2.00;;;1.50;;
12852;SDS011;6495;51.808;7.478;2022-10-16T06:01:22;2.20;;;1.23;;
12852;SDS011;6495;51.808;7.478;2022-10-16T06:03:50;3.13;;;1.38;;
12852;SDS011;6495;51.808;7.478;2022-10-16T06:06:20;1.98;;;1.45;;
12852;SDS011;6495;51.808;7.478;2022-10-16T06:08:52;1.40;;;1.30;;
12852;SDS011;6495;51.808;7.478;2022-10-16T06:11:22;1.90;;;1.30;;
12852;SDS011;6495;51.808;7.478;2022-10-16T06:13:54;1.52;;;1.40;;
12852;SDS011;6495;51.808;7.478;2022-10-16T06:16:25;2.05;;;1.58;;
12852;SDS011;6495;51.808;7.478;2022-10-16T06:18:54;1.60;;;1.42;;
12852;SDS011;6495;51.808;7.478;2022-10-16T06:21:24;1.27;;;1.17;;
12852;SDS011;6495;51.808;7.478;2022-10-16T06:23:53;1.77;;;1.30;;
12852;SDS011;6495;51.808;7.478;2022-10-16T06:26:23;1.35;;;1.25;;
12852;SDS011;6495;51.808;7.478;2022-10-16T06:28:54;1.55;;;1.25;;
12852;SDS011;6495;51.808;7.478;2022-10-16T06:31:25;1.80;;;1.20;;
12852;SDS011;6495;51.808;7.478;2022-10-16T06:33:57;1.15;;;1.05;;
12852;SDS011;6495;51.808;7.478;2022-10-16T06:36:25;1.52;;;1.25;;
12852;SDS011;6495;51.808;7.478;2022-10-16T06:38:53;1.55;;;1.13;;
12852;SDS011;6495;51.808;7.478;2022-10-16T06:41:22;1.95;;;1.40;;
12852;SDS011;6495;51.808;7.478;2022-10-16T06:43:51;1.50;;;1.30;;
12852;SDS011;6495;51.808;7.478;2022-10-16T06:46:20;1.80;;;1.33;;
12852;SDS011;6495;51.808;7.478;2022-10-16T06:48:52;1.75;;;1.20;;
12852;SDS011;6495;51.808;7.478;2022-10-16T06:51:21;1.42;;;1.23;;
12852;SDS011;6495;51.808;7.478;2022-10-16T06:53:51;4.90;;;1.60;;
12852;SDS011;6495;51.808;7.478;2022-10-16T06:56:30;1.40;;;1.27;;
12852;SDS011;6495;51.808;7.478;2022-10-16T06:59:01;2.03;;;1.35;;
12852;SDS011;6495;51.808;7.478;2022-10-16T07:01:30;1.98;;;1.60;;
12852;SDS011;6495;51.808;7.478;2022-10-16T07:03:59;1.48;;;1.38;;
12852;SDS011;6495;51.808;7.478;2022-10-16T07:06:30;3.60;;;1.35;;
12852;SDS011;6495;51.808;7.478;2022-10-16T07:09:02;1.55;;;1.25;;
12852;SDS011;6495;51.808;7.478;2022-10-16T07:11:32;2.33;;;1.20;;
12852;SDS011;6495;51.808;7.478;2022-10-16T07:14:02;2.38;;;1.38;;
12852;SDS011;6495;51.808;7.478;2022-10-16T07:16:31;1.23;;;1.13;;
12852;SDS011;6495;51.808;7.478;2022-10-16T07:19:00;1.83;;;1.20;;
12852;SDS011;6495;51.808;7.478;2022-10-16T07:21:30;1.25;;;1.15;;
12852;SDS011;6495;51.808;7.478;2022-10-16T07:24:03;3.28;;;1.27;;
12852;SDS011;6495;51.808;7.478;2022-10-16T07:26:34;1.73;;;1.30;;
12852;SDS011;6495;51.808;7.478;2022-10-16T07:29:06;1.90;;;1.35;;
12852;SDS011;6495;51.808;7.478;2022-10-16T07:31:39;1.65;;;1.45;;
12852;SDS011;6495;51.808;7.478;2022-10-16T07:34:08;2.58;;;1.50;;
12852;SDS011;6495;51.808;7.478;2022-10-16T07:36:37;2.60;;;1.40;;
12852;SDS011;6495;51.808;7.478;2022-10-16T07:39:05;2.28;;;1.80;;
12852;SDS011;6495;51.808;7.478;2022-10-16T07:41:34;1.63;;;1.30;;
12852;SDS011;6495;51.808;7.478;2022-10-16T07:44:03;3.63;;;1.25;;
12852;SDS011;6495;51.808;7.478;2022-10-16T07:46:34;2.33;;;1.55;;
12852;SDS011;6495;51.808;7.478;2022-10-16T07:49:02;2.67;;;1.58;;
12852;SDS011;6495;51.808;7.478;2022-10-16T07:51:31;1.58;;;1.48;;
12852;SDS011;6495;51.808;7.478;2022-10-16T07:53:59;3.35;;;1.45;;
12852;SDS011;6495;51.808;7.478;2022-10-16T07:56:27;1.95;;;1.75;;
12852;SDS011;6495;51.808;7.478;2022-10-16T07:58:57;2.25;;;1.50;;
12852;SDS011;6495;51.808;7.478;2022-10-16T08:01:25;1.38;;;1.27;;
12852;SDS011;6495;51.808;7.478;2022-10-16T08:03:55;1.92;;;1.35;;
12852;SDS011;6495;51.808;7.478;2022-10-16T08:06:23;1.50;;;1.40;;
12852;SDS011;6495;51.808;7.478;2022-10-16T08:08:53;1.40;;;1.30;;
12852;SDS011;6495;51.808;7.478;2022-10-16T08:11:22;1.30;;;1.20;;
12852;SDS011;6495;51.808;7.478;2022-10-16T08:13:50;2.70;;;1.35;;
12852;SDS011;6495;51.808;7.478;2022-10-16T08:16:18;3.40;;;1.27;;
12852;SDS011;6495;51.808;7.478;2022-10-16T08:18:46;2.40;;;1.70;;
12852;SDS011;6495;51.808;7.478;2022-10-16T08:21:16;3.55;;;1.52;;
12852;SDS011;6495;51.808;7.478;2022-10-16T08:23:47;1.35;;;1.20;;
12852;SDS011;6495;51.808;7.478;2022-10-16T08:26:22;1.70;;;1.40;;
12852;SDS011;6495;51.808;7.478;2022-10-16T08:28:50;3.47;;;1.60;;
12852;SDS011;6495;51.808;7.478;2022-10-16T08:31:19;2.38;;;1.60;;
12852;SDS011;6495;51.808;7.478;2022-10-16T08:33:47;2.03;;;1.50;;
12852;SDS011;6495;51.808;7.478;2022-10-16T08:36:17;1.38;;;1.20;;
12852;SDS011;6495;51.808;7.478;2022-10-16T08:38:47;1.77;;;1.15;;
12852;SDS011;6495;51.808;7.478;2022-10-16T08:48:00;2.97;;;1.50;;
12852;SDS011;6495;51.808;7.478;2022-10-16T08:50:44;4.05;;;1.15;;
12852;SDS011;6495;51.808;7.478;2022-10-16T08:53:19;2.90;;;1.30;;
12852;SDS011;6495;51.808;7.478;2022-10-16T08:55:52;1.08;;;0.93;;
12852;SDS011;6495;51.808;7.478;2022-10-16T08:58:22;2.65;;;1.20;;
12852;SDS011;6495;51.808;7.478;2022-10-16T09:00:55;2.00;;;1.15;;
12852;SDS011;6495;51.808;7.478;2022-10-16T09:03:42;1.60;;;1.42;;
12852;SDS011;6495;51.808;7.478;2022-10-16T09:06:32;2.88;;;1.17;;
12852;SDS011;6495;51.808;7.478;2022-10-16T09:09:23;3.60;;;1.10;;
12852;SDS011;6495;51.808;7.478;2022-10-16T09:12:24;1.30;;;1.20;;
12852;SDS011;6495;51.808;7.478;2022-10-16T09:15:07;4.07;;;1.15;;
12852;SDS011;6495;51.808;7.478;2022-10-16T09:17:53;1.85;;;1.00;;
12852;SDS011;6495;51.808;7.478;2022-10-16T09:20:32;2.65;;;1.10;;
12852;SDS011;6495;51.808;7.478;2022-10-16T09:23:17;3.45;;;1.67;;
12852;SDS011;6495;51.808;7.478;2022-10-16T09:25:49;1.88;;;1.33;;
12852;SDS011;6495;51.808;7.478;2022-10-16T09:28:19;3.08;;;1.35;;
12852;SDS011;6495;51.808;7.478;2022-10-16T09:30:47;4.35;;;1.10;;
12852;SDS011;6495;51.808;7.478;2022-10-16T09:33:17;1.77;;;1.20;;
12852;SDS011;6495;51.808;7.478;2022-10-16T09:35:49;4.40;;;1.10;;
12852;SDS011;6495;51.808;7.478;2022-10-16T09:38:21;2.08;;;1.15;;
12852;SDS011;6495;51.808;7.478;2022-10-16T09:40:54;2.20;;;1.20;;
12852;SDS011;6495;51.808;7.478;2022-10-16T09:43:31;1.92;;;1.10;;
12852;SDS011;6495;51.808;7.478;2022-10-16T09:46:06;3.42;;;1.10;;
12852;SDS011;6495;51.808;7.478;2022-10-16T09:48:49;4.15;;;1.20;;
12852;SDS011;6495;51.808;7.478;2022-10-16T09:51:22;4.68;;;1.23;;
12852;SDS011;6495;51.808;7.478;2022-10-16T09:53:54;2.28;;;1.00;;
12852;SDS011;6495;51.808;7.478;2022-10-16T09:56:26;3.67;;;1.20;;
12852;SDS011;6495;51.808;7.478;2022-10-16T09:58:58;1.65;;;1.10;;
12852;SDS011;6495;51.808;7.478;2022-10-16T10:01:29;3.78;;;1.10;;
12852;SDS011;6495;51.808;7.478;2022-10-16T10:04:04;2.97;;;0.90;;
12852;SDS011;6495;51.808;7.478;2022-10-16T10:06:33;3.47;;;1.30;;
12852;SDS011;6495;51.808;7.478;2022-10-16T10:09:06;1.40;;;1.00;;
12852;SDS011;6495;51.808;7.478;2022-10-16T10:11:52;1.33;;;0.80;;
12852;SDS011;6495;51.808;7.478;2022-10-16T10:14:25;1.33;;;1.13;;
12852;SDS011;6495;51.808;7.478;2022-10-16T10:17:09;2.38;;;1.30;;
12852;SDS011;6495;51.808;7.478;2022-10-16T10:19:44;5.97;;;1.20;;
12852;SDS011;6495;51.808;7.478;2022-10-16T10:22:24;1.70;;;1.08;;
12852;SDS011;6495;51.808;7.478;2022-10-16T10:24:59;4.45;;;1.20;;
12852;SDS011;6495;51.808;7.478;2022-10-16T10:30:44;2.35;;;0.90;;
12852;SDS011;6495;51.808;7.478;2022-10-16T10:33:24;1.02;;;0.82;;
12852;SDS011;6495;51.808;7.478;2022-10-16T10:36:05;1.00;;;0.80;;
12852;SDS011;6495;51.808;7.478;2022-10-16T10:39:08;3.20;;;0.88;;
12852;SDS011;6495;51.808;7.478;2022-10-16T10:41:58;2.03;;;1.05;;
12852;SDS011;6495;51.808;7.478;2022-10-16T10:47:46;3.78;;;1.10;;
12852;SDS011;6495;51.808;7.478;2022-10-16T10:50:29;0.73;;;0.73;;
12852;SDS011;6495;51.808;7.478;2022-10-16T10:53:09;1.38;;;1.00;;
12852;SDS011;6495;51.808;7.478;2022-10-16T10:56:00;0.80;;;0.80;;
12852;SDS011;6495;51.808;7.478;2022-10-16T10:58:49;1.63;;;1.20;;
12852;SDS011;6495;51.808;7.478;2022-10-16T11:01:54;1.58;;;0.90;;
12852;SDS011;6495;51.808;7.478;2022-10-16T11:07:49;0.90;;;0.90;;
12852;SDS011;6495;51.808;7.478;2022-10-16T11:10:25;0.82;;;0.77;;
12852;SDS011;6495;51.808;7.478;2022-10-16T11:12:58;2.70;;;0.90;;
12852;SDS011;6495;51.808;7.478;2022-10-16T11:15:43;1.00;;;0.90;;
12852;SDS011;6495;51.808;7.478;2022-10-16T11:18:19;1.55;;;0.80;;
12852;SDS011;6495;51.808;7.478;2022-10-16T11:20:54;2.67;;;0.80;;
12852;SDS011;6495;51.808;7.478;2022-10-16T11:23:30;1.00;;;0.70;;
12852;SDS011;6495;51.808;7.478;2022-10-16T11:26:09;0.80;;;0.80;;
12852;SDS011;6495;51.808;7.478;2022-10-16T11:28:45;0.77;;;0.63;;
12852;SDS011;6495;51.808;7.478;2022-10-16T11:31:17;3.13;;;0.90;;
12852;SDS011;6495;51.808;7.478;2022-10-16T11:34:01;1.33;;;0.90;;
12852;SDS011;6495;51.808;7.478;2022-10-16T11:36:43;0.70;;;0.70;;
12852;SDS011;6495;51.808;7.478;2022-10-16T11:39:19;1.30;;;0.88;;
12852;SDS011;6495;51.808;7.478;2022-10-16T11:41:50;2.33;;;0.80;;
12852;SDS011;6495;51.808;7.478;2022-10-16T11:44:27;0.80;;;0.80;;
12852;SDS011;6495;51.808;7.478;2022-10-16T11:47:22;4.15;;;0.93;;
12852;SDS011;6495;51.808;7.478;2022-10-16T11:50:20;1.85;;;0.90;;
12852;SDS011;6495;51.808;7.478;2022-10-16T11:52:58;1.92;;;0.85;;
12852;SDS011;6495;51.808;7.478;2022-10-16T11:55:37;4.10;;;0.95;;
12852;SDS011;6495;51.808;7.478;2022-10-16T11:58:16;2.03;;;0.88;;
12852;SDS011;6495;51.808;7.478;2022-10-16T12:00:56;1.35;;;0.80;;
12852;SDS011;6495;51.808;7.478;2022-10-16T12:03:39;1.20;;;0.98;;
12852;SDS011;6495;51.808;7.478;2022-10-16T12:06:21;2.38;;;0.95;;
12852;SDS011;6495;51.808;7.478;2022-10-16T12:09:02;1.45;;;0.90;;
12852;SDS011;6495;51.808;7.478;2022-10-16T12:11:32;1.00;;;0.80;;
12852;SDS011;6495;51.808;7.478;2022-10-16T12:17:26;1.38;;;0.80;;
12852;SDS011;6495;51.808;7.478;2022-10-16T12:20:18;3.65;;;0.93;;
12852;SDS011;6495;51.808;7.478;2022-10-16T12:22:58;2.88;;;0.82;;
12852;SDS011;6495;51.808;7.478;2022-10-16T12:25:31;0.95;;;0.73;;
12852;SDS011;6495;51.808;7.478;2022-10-16T12:28:03;0.80;;;0.80;;
12852;SDS011;6495;51.808;7.478;2022-10-16T12:30:34;1.15;;;0.70;;
12852;SDS011;6495;51.808;7.478;2022-10-16T12:33:04;2.08;;;0.60;;
12852;SDS011;6495;51.808;7.478;2022-10-16T12:35:47;0.90;;;0.90;;
12852;SDS011;6495;51.808;7.478;2022-10-16T12:38:17;1.95;;;0.80;;
12852;SDS011;6495;51.808;7.478;2022-10-16T12:40:54;2.33;;;0.90;;
12852;SDS011;6495;51.808;7.478;2022-10-16T12:43:36;1.30;;;0.80;;
12852;SDS011;6495;51.808;7.478;2022-10-16T12:46:22;1.35;;;0.73;;
12852;SDS011;6495;51.808;7.478;2022-10-16T12:49:05;6.80;;;0.85;;
12852;SDS011;6495;51.808;7.478;2022-10-16T12:51:50;0.95;;;0.75;;
12852;SDS011;6495;51.808;7.478;2022-10-16T12:54:19;0.80;;;0.80;;
12852;SDS011;6495;51.808;7.478;2022-10-16T12:56:57;1.10;;;1.00;;
12852;SDS011;6495;51.808;7.478;2022-10-16T12:59:48;1.55;;;1.00;;
12852;SDS011;6495;51.808;7.478;2022-10-16T13:02:46;1.85;;;1.30;;
12852;SDS011;6495;51.808;7.478;2022-10-16T13:05:40;1.70;;;1.20;;
12852;SDS011;6495;51.808;7.478;2022-10-16T13:08:30;1.63;;;1.30;;
12852;SDS011;6495;51.808;7.478;2022-10-16T13:11:19;2.90;;;1.38;;
12852;SDS011;6495;51.808;7.478;2022-10-16T13:14:05;3.28;;;1.27;;
12852;SDS011;6495;51.808;7.478;2022-10-16T13:16:52;2.83;;;1.30;;
12852;SDS011;6495;51.808;7.478;2022-10-16T13:19:39;2.95;;;1.30;;
12852;SDS011;6495;51.808;7.478;2022-10-16T13:22:19;2.75;;;1.40;;
12852;SDS011;6495;51.808;7.478;2022-10-16T13:25:02;2.90;;;1.48;;
12852;SDS011;6495;51.808;7.478;2022-10-16T13:27:50;3.30;;;1.48;;
12852;SDS011;6495;51.808;7.478;2022-10-16T13:30:26;4.93;;;1.30;;
12852;SDS011;6495;51.808;7.478;2022-10-16T13:32:58;4.80;;;1.23;;
12852;SDS011;6495;51.808;7.478;2022-10-16T13:35:30;1.95;;;1.15;;
12852;SDS011;6495;51.808;7.478;2022-10-16T13:38:05;1.45;;;1.35;;
12852;SDS011;6495;51.808;7.478;2022-10-16T13:40:51;2.80;;;1.20;;
12852;SDS011;6495;51.808;7.478;2022-10-16T13:43:27;1.55;;;1.20;;
12852;SDS011;6495;51.808;7.478;2022-10-16T13:46:02;1.40;;;1.30;;
12852;SDS011;6495;51.808;7.478;2022-10-16T13:48:33;1.73;;;1.30;;
12852;SDS011;6495;51.808;7.478;2022-10-16T13:51:02;1.50;;;1.27;;
12852;SDS011;6495;51.808;7.478;2022-10-16T13:53:40;1.60;;;1.10;;
12852;SDS011;6495;51.808;7.478;2022-10-16T13:56:10;2.40;;;1.40;;
12852;SDS011;6495;51.808;7.478;2022-10-16T13:58:41;2.67;;;1.38;;
12852;SDS011;6495;51.808;7.478;2022-10-16T14:01:17;1.65;;;1.38;;
12852;SDS011;6495;51.808;7.478;2022-10-16T14:03:50;4.70;;;1.67;;
12852;SDS011;6495;51.808;7.478;2022-10-16T14:06:20;4.75;;;1.25;;
12852;SDS011;6495;51.808;7.478;2022-10-16T14:08:50;2.42;;;1.23;;
12852;SDS011;6495;51.808;7.478;2022-10-16T14:11:26;4.95;;;1.50;;
12852;SDS011;6495;51.808;7.478;2022-10-16T14:13:56;1.52;;;1.40;;
12852;SDS011;6495;51.808;7.478;2022-10-16T14:16:26;3.03;;;1.40;;
12852;SDS011;6495;51.808;7.478;2022-10-16T14:18:59;2.05;;;1.27;;
12852;SDS011;6495;51.808;7.478;2022-10-16T14:21:32;2.88;;;1.40;;
12852;SDS011;6495;51.808;7.478;2022-10-16T14:24:10;4.97;;;1.50;;
12852;SDS011;6495;51.808;7.478;2022-10-16T14:26:41;2.58;;;1.20;;
12852;SDS011;6495;51.808;7.478;2022-10-16T14:29:17;1.50;;;1.27;;
12852;SDS011;6495;51.808;7.478;2022-10-16T14:31:55;1.67;;;1.58;;
12852;SDS011;6495;51.808;7.478;2022-10-16T14:34:29;3.38;;;1.20;;
12852;SDS011;6495;51.808;7.478;2022-10-16T14:37:00;2.42;;;1.40;;
12852;SDS011;6495;51.808;7.478;2022-10-16T14:39:35;2.30;;;1.40;;
12852;SDS011;6495;51.808;7.478;2022-10-16T14:42:04;2.28;;;1.40;;
12852;SDS011;6495;51.808;7.478;2022-10-16T14:44:32;1.65;;;1.10;;
12852;SDS011;6495;51.808;7.478;2022-10-16T14:47:09;3.35;;;1.50;;
12852;SDS011;6495;51.808;7.478;2022-10-16T14:49:43;1.67;;;1.25;;
12852;SDS011;6495;51.808;7.478;2022-10-16T14:52:11;1.70;;;1.20;;
12852;SDS011;6495;51.808;7.478;2022-10-16T14:54:40;1.33;;;1.20;;
12852;SDS011;6495;51.808;7.478;2022-10-16T14:57:15;2.55;;;1.50;;
12852;SDS011;6495;51.808;7.478;2022-10-16T14:59:45;3.38;;;1.17;;
12852;SDS011;6495;51.808;7.478;2022-10-16T15:02:20;1.60;;;1.30;;
12852;SDS011;6495;51.808;7.478;2022-10-16T15:04:55;1.77;;;1.40;;
12852;SDS011;6495;51.808;7.478;2022-10-16T15:07:24;4.90;;;1.40;;
12852;SDS011;6495;51.808;7.478;2022-10-16T15:09:52;1.50;;;1.40;;
12852;SDS011;6495;51.808;7.478;2022-10-16T15:12:23;1.10;;;1.02;;
12852;SDS011;6495;51.808;7.478;2022-10-16T15:14:51;1.60;;;1.25;;
12852;SDS011;6495;51.808;7.478;2022-10-16T15:17:20;1.80;;;1.10;;
12852;SDS011;6495;51.808;7.478;2022-10-16T15:19:48;1.98;;;1.40;;
12852;SDS011;6495;51.808;7.478;2022-10-16T15:22:17;2.63;;;1.20;;
12852;SDS011;6495;51.808;7.478;2022-10-16T15:24:45;1.33;;;1.15;;
12852;SDS011;6495;51.808;7.478;2022-10-16T15:27:13;2.45;;;1.27;;
12852;SDS011;6495;51.808;7.478;2022-10-16T15:29:41;6.95;;;1.58;;
12852;SDS011;6495;51.808;7.478;2022-10-16T15:32:10;1.98;;;1.40;;
12852;SDS011;6495;51.808;7.478;2022-10-16T15:34:39;2.50;;;1.23;;
12852;SDS011;6495;51.808;7.478;2022-10-16T15:37:08;2.28;;;1.30;;
12852;SDS011;6495;51.808;7.478;2022-10-16T15:39:38;2.35;;;1.30;;
12852;SDS011;6495;51.808;7.478;2022-10-16T15:42:06;5.28;;;1.23;;
12852;SDS011;6495;51.808;7.478;2022-10-16T15:44:34;1.38;;;1.20;;
12852;SDS011;6495;51.808;7.478;2022-10-16T15:47:02;1.63;;;1.25;;
12852;SDS011;6495;51.808;7.478;2022-10-16T15:49:30;3.33;;;1.30;;
12852;SDS011;6495;51.808;7.478;2022-10-16T15:52:00;2.58;;;1.25;;
12852;SDS011;6495;51.808;7.478;2022-10-16T15:54:28;2.05;;;1.13;;
12852;SDS011;6495;51.808;7.478;2022-10-16T15:56:56;1.88;;;1.23;;
12852;SDS011;6495;51.808;7.478;2022-10-16T15:59:24;5.93;;;1.30;;